createdAt,value
2023-03-24T00:01:53.519Z,4.28
2023-03-24T00:04:20.443Z,4.20
2023-03-24T00:06:49.395Z,4.28
2023-03-24T00:09:16.827Z,4.20
2023-03-24T00:11:44.225Z,3.65
2023-03-24T00:14:12.736Z,5.07
2023-03-24T00:16:42.863Z,5.28
2023-03-24T00:19:11.526Z,4.28
2023-03-24T00:21:38.205Z,4.50
2023-03-24T00:24:07.632Z,3.85
2023-03-24T00:26:37.590Z,3.45
2023-03-24T00:29:07.109Z,3.80
2023-03-24T00:31:34.249Z,3.83
2023-03-24T00:34:02.860Z,4.03
2023-03-24T00:36:29.650Z,3.70
2023-03-24T00:38:58.029Z,4.78
2023-03-24T00:41:27.064Z,3.60
2023-03-24T00:43:59.511Z,3.85
2023-03-24T00:46:28.483Z,4.03
2023-03-24T00:49:02.371Z,4.22
2023-03-24T00:51:31.685Z,4.30
2023-03-24T00:53:59.368Z,4.35
2023-03-24T00:56:27.532Z,4.30
2023-03-24T00:58:57.766Z,5.10
2023-03-24T01:01:30.249Z,5.57
2023-03-24T01:03:57.013Z,5.90
2023-03-24T01:06:24.593Z,5.15
2023-03-24T01:08:53.882Z,4.75
2023-03-24T01:11:24.325Z,4.80
2023-03-24T01:13:52.446Z,4.28
2023-03-24T01:16:19.660Z,4.30
2023-03-24T01:18:46.347Z,4.13
2023-03-24T01:21:13.276Z,4.32
2023-03-24T01:23:42.031Z,3.70
2023-03-24T01:26:11.028Z,4.47
2023-03-24T01:28:41.078Z,4.13
2023-03-24T01:31:09.950Z,4.68
2023-03-24T01:33:38.052Z,4.57
2023-03-24T01:36:06.740Z,4.45
2023-03-24T01:38:33.957Z,3.60
2023-03-24T01:41:05.723Z,4.60
2023-03-24T01:43:34.708Z,4.53
2023-03-24T01:46:05.643Z,5.70
2023-03-24T01:48:52.445Z,4.30
2023-03-24T01:51:23.581Z,4.00
2023-03-24T01:53:55.981Z,4.28
2023-03-24T01:56:24.271Z,4.18
2023-03-24T01:58:56.603Z,4.00
2023-03-24T02:01:26.506Z,4.15
2023-03-24T02:03:53.281Z,4.30
2023-03-24T02:06:23.348Z,4.50
2023-03-24T02:08:55.985Z,3.85
2023-03-24T02:11:25.222Z,4.45
2023-03-24T02:13:51.923Z,3.67
2023-03-24T02:16:33.888Z,4.25
2023-03-24T02:19:38.225Z,4.07
2023-03-24T02:22:36.645Z,4.50
2023-03-24T02:25:03.264Z,4.07
2023-03-24T02:27:44.341Z,4.03
2023-03-24T02:30:41.697Z,3.95
2023-03-24T02:35:50.109Z,3.88
2023-03-24T02:38:47.283Z,3.75
2023-03-24T02:41:33.383Z,4.53
2023-03-24T02:44:25.907Z,4.28
2023-03-24T02:47:01.513Z,4.68
2023-03-24T02:49:32.149Z,3.80
2023-03-24T02:52:08.017Z,4.00
2023-03-24T02:54:48.882Z,4.20
2023-03-24T02:57:25.509Z,5.10
2023-03-24T03:00:10.198Z,5.47
2023-03-24T03:02:45.454Z,5.32
2023-03-24T03:05:20.363Z,5.28
2023-03-24T03:07:49.049Z,4.68
2023-03-24T03:10:22.788Z,5.20
2023-03-24T03:12:55.345Z,5.13
2023-03-24T03:15:27.797Z,6.00
2023-03-24T03:18:03.676Z,5.05
2023-03-24T03:20:38.231Z,4.32
2023-03-24T03:23:10.331Z,4.72
2023-03-24T03:25:46.349Z,4.70
2023-03-24T03:28:18.060Z,5.60
2023-03-24T03:30:51.071Z,6.07
2023-03-24T03:33:26.135Z,6.05
2023-03-24T03:36:14.304Z,5.88
2023-03-24T03:39:09.651Z,6.35
2023-03-24T03:41:38.319Z,5.53
2023-03-24T03:44:05.414Z,5.40
2023-03-24T03:46:32.324Z,5.78
2023-03-24T03:48:58.983Z,6.95
2023-03-24T03:51:26.420Z,7.55
2023-03-24T03:53:58.976Z,7.80
2023-03-24T03:56:28.394Z,8.32
2023-03-24T03:58:55.111Z,8.10
2023-03-24T04:01:25.559Z,7.32
2023-03-24T04:04:11.446Z,8.30
2023-03-24T04:07:08.093Z,7.40
2023-03-24T04:09:54.740Z,7.93
2023-03-24T04:12:36.100Z,8.70
2023-03-24T04:15:28.163Z,8.98
2023-03-24T04:18:04.621Z,8.60
2023-03-24T04:20:50.787Z,8.38
2023-03-24T04:23:39.801Z,9.48
2023-03-24T04:26:26.678Z,10.18
2023-03-24T04:29:17.907Z,10.63
2023-03-24T04:31:53.890Z,10.02
2023-03-24T04:34:28.846Z,10.77
2023-03-24T04:37:04.182Z,9.65
2023-03-24T04:39:36.019Z,11.53
2023-03-24T04:42:07.941Z,11.88
2023-03-24T04:44:34.791Z,12.25
2023-03-24T04:47:03.182Z,11.45
2023-03-24T04:49:29.855Z,10.48
2023-03-24T04:51:56.686Z,11.00
2023-03-24T04:54:24.014Z,11.18
2023-03-24T04:56:53.583Z,12.75
2023-03-24T04:59:21.318Z,11.93
2023-03-24T05:01:51.876Z,10.85
2023-03-24T05:04:21.093Z,12.07
2023-03-24T05:06:49.671Z,14.25
2023-03-24T05:09:21.815Z,13.65
2023-03-24T05:11:49.009Z,14.93
2023-03-24T05:14:16.537Z,15.80
2023-03-24T05:16:43.379Z,14.85
2023-03-24T05:19:11.128Z,13.73
2023-03-24T05:21:38.212Z,15.73
2023-03-24T05:24:05.249Z,15.73
2023-03-24T05:26:33.346Z,15.00
2023-03-24T05:29:00.514Z,14.55
2023-03-24T05:31:27.629Z,14.60
2023-03-24T05:33:54.412Z,14.63
2023-03-24T05:36:21.297Z,13.82
2023-03-24T05:38:47.928Z,13.40
2023-03-24T05:41:14.636Z,13.43
2023-03-24T05:43:41.228Z,13.45
2023-03-24T05:46:08.151Z,13.20
2023-03-24T05:48:34.945Z,14.02
2023-03-24T05:51:01.913Z,12.73
2023-03-24T05:53:28.568Z,14.43
2023-03-24T05:55:55.195Z,14.85
2023-03-24T05:58:21.815Z,13.93
2023-03-24T06:00:48.697Z,11.57
2023-03-24T06:03:17.359Z,11.57
2023-03-24T06:05:46.062Z,10.75
2023-03-24T06:08:13.546Z,10.95
2023-03-24T06:10:41.115Z,11.02
2023-03-24T06:13:09.235Z,10.35
2023-03-24T06:15:39.538Z,10.55
2023-03-24T06:18:07.825Z,10.50
2023-03-24T06:20:36.188Z,10.25
2023-03-24T06:23:03.401Z,10.00
2023-03-24T06:25:30.189Z,15.07
2023-03-24T06:28:03.992Z,14.75
2023-03-24T06:30:31.004Z,13.35
2023-03-24T06:32:58.317Z,12.85
2023-03-24T06:35:25.163Z,12.15
2023-03-24T06:37:51.829Z,12.25
2023-03-24T06:40:19.660Z,12.00
2023-03-24T06:42:46.426Z,12.20
2023-03-24T06:45:13.161Z,12.07
2023-03-24T06:47:39.820Z,12.25
2023-03-24T06:50:07.260Z,12.65
2023-03-24T06:52:34.584Z,11.88
2023-03-24T06:55:01.747Z,11.90
2023-03-24T06:57:28.940Z,11.32
2023-03-24T06:59:56.238Z,10.73
2023-03-24T07:02:23.740Z,13.77
2023-03-24T07:04:50.603Z,15.93
2023-03-24T07:09:47.014Z,15.65
2023-03-24T07:12:14.867Z,16.58
2023-03-24T07:14:41.638Z,16.17
2023-03-24T07:17:08.214Z,15.13
2023-03-24T07:19:34.851Z,14.48
2023-03-24T07:22:01.519Z,15.27
2023-03-24T07:24:30.589Z,14.55
2023-03-24T07:26:58.349Z,14.73
2023-03-24T07:29:30.285Z,14.15
2023-03-24T07:32:01.000Z,15.00
2023-03-24T07:34:28.761Z,14.35
2023-03-24T07:36:56.111Z,12.70
2023-03-24T07:39:23.087Z,13.90
2023-03-24T07:41:49.794Z,12.93
2023-03-24T07:44:16.707Z,13.50
2023-03-24T07:46:43.386Z,12.02
2023-03-24T07:49:19.007Z,13.20
2023-03-24T07:51:46.666Z,13.73
2023-03-24T07:54:13.469Z,13.52
2023-03-24T07:56:40.526Z,15.27
2023-03-24T07:59:07.825Z,15.65
2023-03-24T08:01:36.956Z,14.10
2023-03-24T08:04:06.402Z,14.93
2023-03-24T08:06:33.262Z,15.10
2023-03-24T08:08:59.957Z,16.60
2023-03-24T08:11:26.615Z,14.52
2023-03-24T08:13:53.261Z,14.55
2023-03-24T08:16:19.957Z,14.48
2023-03-24T08:18:46.666Z,15.48
2023-03-24T08:21:13.292Z,14.43
2023-03-24T08:23:39.942Z,15.18
2023-03-24T08:26:07.290Z,14.82
2023-03-24T08:28:34.072Z,14.88
2023-03-24T08:31:00.818Z,15.35
2023-03-24T08:33:27.554Z,15.55
2023-03-24T08:35:57.631Z,16.10
2023-03-24T08:38:30.745Z,15.32
2023-03-24T08:41:02.038Z,16.80
2023-03-24T08:43:30.750Z,15.50
2023-03-24T08:45:58.826Z,15.25
2023-03-24T08:48:26.023Z,15.32
2023-03-24T08:50:53.048Z,14.43
2023-03-24T08:53:19.889Z,16.80
2023-03-24T08:55:47.015Z,15.73
2023-03-24T08:58:17.297Z,14.65
2023-03-24T09:00:45.316Z,14.27
2023-03-24T09:03:22.266Z,13.55
2023-03-24T09:05:50.358Z,13.07
2023-03-24T09:08:19.001Z,13.15
2023-03-24T09:10:47.035Z,14.40
2023-03-24T09:13:14.003Z,14.27
2023-03-24T09:15:46.322Z,12.65
2023-03-24T09:18:13.359Z,13.05
2023-03-24T09:20:40.011Z,13.10
2023-03-24T09:23:06.650Z,11.10
2023-03-24T09:25:33.298Z,12.13
2023-03-24T09:28:00.873Z,11.55
2023-03-24T09:30:29.255Z,11.82
2023-03-24T09:32:59.055Z,11.60
2023-03-24T09:35:27.706Z,12.02
2023-03-24T09:37:56.032Z,11.52
2023-03-24T09:40:26.459Z,11.93
2023-03-24T09:43:02.334Z,11.32
2023-03-24T09:45:33.017Z,12.65
2023-03-24T09:48:07.901Z,12.82
2023-03-24T09:50:43.216Z,12.27
2023-03-24T09:53:29.797Z,12.82
2023-03-24T09:56:03.886Z,12.82
2023-03-24T09:58:33.591Z,11.77
2023-03-24T10:01:00.513Z,12.40
2023-03-24T10:03:27.200Z,12.55
2023-03-24T10:06:01.862Z,11.73
2023-03-24T10:08:38.253Z,12.48
2023-03-24T10:11:05.062Z,13.15
2023-03-24T10:13:46.951Z,12.38
2023-03-24T10:16:34.150Z,13.18
2023-03-24T10:19:16.148Z,11.68
2023-03-24T10:21:55.004Z,12.10
2023-03-24T10:24:32.714Z,11.05
2023-03-24T10:27:15.611Z,11.23
2023-03-24T10:29:45.972Z,11.07
2023-03-24T10:32:20.804Z,11.38
2023-03-24T10:34:52.457Z,12.25
2023-03-24T10:37:19.723Z,12.57
2023-03-24T10:39:46.535Z,12.75
2023-03-24T10:42:18.320Z,12.18
2023-03-24T10:44:48.322Z,12.15
2023-03-24T10:47:23.134Z,11.70
2023-03-24T10:50:00.970Z,11.43
2023-03-24T10:52:42.142Z,10.25
2023-03-24T10:55:16.831Z,9.02
2023-03-24T10:57:48.438Z,10.05
2023-03-24T11:00:29.685Z,10.85
2023-03-24T11:03:00.130Z,10.65
2023-03-24T11:05:30.880Z,10.43
2023-03-24T11:08:12.297Z,10.55
2023-03-24T11:10:39.333Z,9.40
2023-03-24T11:13:18.937Z,9.82
2023-03-24T11:15:56.899Z,8.85
2023-03-24T11:18:23.575Z,7.70
2023-03-24T11:20:53.897Z,7.50
2023-03-24T11:23:25.161Z,6.82
2023-03-24T11:26:15.992Z,6.05
2023-03-24T11:28:52.241Z,6.90
2023-03-24T11:31:30.628Z,6.28
2023-03-24T11:34:12.643Z,6.30
2023-03-24T11:36:45.443Z,6.15
2023-03-24T11:39:17.927Z,5.30
2023-03-24T11:41:51.520Z,5.47
2023-03-24T11:44:22.495Z,5.00
2023-03-24T11:46:59.757Z,4.03
2023-03-24T11:49:30.462Z,2.35
2023-03-24T11:51:58.053Z,1.48
2023-03-24T11:54:32.443Z,1.35
2023-03-24T11:57:04.907Z,1.45
2023-03-24T11:59:40.293Z,1.00
2023-03-24T12:02:07.957Z,1.40
2023-03-24T12:04:49.730Z,1.33
2023-03-24T12:07:31.635Z,1.35
2023-03-24T12:10:18.701Z,1.35
2023-03-24T12:13:00.160Z,1.30
2023-03-24T12:15:33.355Z,1.25
2023-03-24T12:18:39.771Z,1.73
2023-03-24T12:21:22.763Z,1.90
2023-03-24T12:23:58.209Z,2.10
2023-03-24T12:26:28.340Z,1.55
2023-03-24T12:29:26.646Z,1.88
2023-03-24T12:32:08.656Z,1.77
2023-03-24T12:34:52.905Z,2.13
2023-03-24T12:37:34.853Z,1.70
2023-03-24T12:40:33.067Z,1.60
2023-03-24T12:43:10.474Z,2.10
2023-03-24T12:45:54.365Z,2.00
2023-03-24T12:48:52.184Z,2.70
2023-03-24T12:51:29.120Z,2.00
2023-03-24T12:54:19.134Z,2.20
2023-03-24T12:56:50.871Z,2.25
2023-03-24T12:59:28.952Z,2.10
2023-03-24T13:02:09.694Z,2.40
2023-03-24T13:04:43.021Z,2.33
2023-03-24T13:07:14.613Z,2.15
2023-03-24T13:09:47.083Z,2.17
2023-03-24T13:12:18.675Z,2.50
2023-03-24T13:15:13.772Z,2.13
2023-03-24T13:17:48.024Z,2.80
2023-03-24T13:20:25.398Z,2.67
2023-03-24T13:22:52.209Z,2.42
2023-03-24T13:25:35.479Z,2.33
2023-03-24T13:28:10.237Z,3.08
2023-03-24T13:30:40.802Z,2.72
2023-03-24T13:33:16.242Z,3.17
2023-03-24T13:36:06.154Z,2.70
2023-03-24T13:38:43.457Z,2.97
2023-03-24T13:41:17.841Z,3.03
2023-03-24T13:43:51.902Z,2.97
2023-03-24T13:46:19.133Z,3.00
2023-03-24T13:48:52.005Z,3.00
2023-03-24T13:51:27.488Z,2.75
2023-03-24T13:53:56.152Z,2.88
2023-03-24T13:56:25.321Z,2.95
2023-03-24T13:59:11.977Z,2.92
2023-03-24T14:01:39.971Z,2.75
2023-03-24T14:04:28.677Z,3.00
2023-03-24T14:06:57.361Z,3.10
2023-03-24T14:09:26.753Z,3.47
2023-03-24T14:12:15.920Z,3.22
2023-03-24T14:15:13.123Z,3.10
2023-03-24T14:17:44.090Z,3.22
2023-03-24T14:20:14.823Z,3.25
2023-03-24T14:22:48.411Z,3.50
2023-03-24T14:25:15.069Z,3.58
2023-03-24T14:27:44.191Z,4.03
2023-03-24T14:30:11.841Z,3.80
2023-03-24T14:32:48.891Z,3.85
2023-03-24T14:35:26.612Z,3.30
2023-03-24T14:37:57.468Z,4.13
2023-03-24T14:40:29.720Z,3.40
2023-03-24T14:43:04.919Z,3.92
2023-03-24T14:46:02.317Z,4.20
2023-03-24T14:48:33.157Z,4.03
2023-03-24T14:51:06.268Z,3.80
2023-03-24T14:53:36.674Z,4.63
2023-03-24T14:56:05.164Z,4.07
2023-03-24T14:58:39.001Z,4.22
2023-03-24T15:01:08.122Z,4.05
2023-03-24T15:03:39.952Z,3.97
2023-03-24T15:06:24.115Z,3.95
2023-03-24T15:08:52.181Z,3.30
2023-03-24T15:11:24.402Z,4.20
2023-03-24T15:13:53.420Z,3.95
2023-03-24T15:16:27.041Z,3.90
2023-03-24T15:21:29.740Z,3.70
2023-03-24T15:23:58.348Z,4.22
2023-03-24T15:26:25.508Z,4.60
2023-03-24T15:28:57.342Z,4.35
2023-03-24T15:31:25.721Z,4.80
2023-03-24T15:33:53.288Z,6.05
2023-03-24T15:36:22.986Z,5.38
2023-03-24T15:38:52.847Z,5.22
2023-03-24T15:41:22.879Z,4.90
2023-03-24T15:43:53.124Z,5.13
2023-03-24T15:46:27.945Z,4.90
2023-03-24T15:48:57.593Z,4.78
2023-03-24T15:51:46.218Z,4.97
2023-03-24T15:54:22.074Z,5.72
2023-03-24T15:57:03.966Z,4.68
2023-03-24T15:59:37.058Z,4.00
2023-03-24T16:02:10.597Z,4.40
2023-03-24T16:04:38.443Z,4.25
2023-03-24T16:07:05.196Z,4.32
2023-03-24T16:09:38.959Z,5.03
2023-03-24T16:12:10.764Z,3.97
2023-03-24T16:14:38.851Z,4.63
2023-03-24T16:17:05.836Z,5.18
2023-03-24T16:19:33.038Z,4.28
2023-03-24T16:21:59.977Z,3.92
2023-03-24T16:24:26.871Z,3.90
2023-03-24T16:26:53.517Z,4.47
2023-03-24T16:29:22.874Z,4.60
2023-03-24T16:31:55.537Z,4.65
2023-03-24T16:34:22.954Z,4.90
2023-03-24T16:36:51.843Z,4.57
2023-03-24T16:39:22.824Z,5.15
2023-03-24T16:41:49.480Z,4.40
2023-03-24T16:44:17.485Z,4.55
2023-03-24T16:46:46.868Z,4.50
2023-03-24T16:49:16.480Z,4.10
2023-03-24T16:51:44.227Z,4.53
2023-03-24T16:54:11.175Z,5.00
2023-03-24T16:56:39.247Z,4.10
2023-03-24T16:59:06.512Z,4.30
2023-03-24T17:01:43.162Z,4.65
2023-03-24T17:04:16.377Z,4.53
2023-03-24T17:06:50.837Z,4.15
2023-03-24T17:09:17.784Z,3.80
2023-03-24T17:11:46.274Z,3.83
2023-03-24T17:14:12.948Z,4.28
2023-03-24T17:16:43.712Z,5.32
2023-03-24T17:19:13.464Z,4.10
2023-03-24T17:21:47.364Z,4.35
2023-03-24T17:24:24.275Z,4.29
2023-03-24T17:26:51.264Z,4.75
2023-03-24T17:29:17.926Z,4.68
2023-03-24T17:31:44.667Z,4.50
2023-03-24T17:34:21.745Z,5.05
2023-03-24T17:36:50.684Z,4.75
2023-03-24T17:39:18.631Z,4.78
2023-03-24T17:41:45.628Z,4.35
2023-03-24T17:44:15.816Z,4.65
2023-03-24T17:46:42.644Z,4.50
2023-03-24T17:49:09.355Z,4.28
2023-03-24T17:51:36.244Z,4.68
2023-03-24T17:54:04.169Z,4.80
2023-03-24T17:56:31.159Z,4.68
2023-03-24T17:58:59.176Z,6.65
2023-03-24T18:01:29.095Z,5.72
2023-03-24T18:03:57.147Z,6.93
2023-03-24T18:06:23.981Z,7.47
2023-03-24T18:08:51.820Z,6.95
2023-03-24T18:11:18.455Z,9.00
2023-03-24T18:13:45.310Z,11.05
2023-03-24T18:16:20.703Z,10.02
2023-03-24T18:18:50.243Z,11.35
2023-03-24T18:21:17.623Z,10.27
2023-03-24T18:23:46.387Z,8.52
2023-03-24T18:26:14.614Z,7.80
2023-03-24T18:28:42.430Z,7.95
2023-03-24T18:31:12.876Z,7.20
2023-03-24T18:33:42.792Z,10.13
2023-03-24T18:36:10.441Z,8.45
2023-03-24T18:38:37.333Z,6.28
2023-03-24T18:41:07.304Z,5.70
2023-03-24T18:43:37.583Z,4.65
2023-03-24T18:46:09.309Z,4.25
2023-03-24T18:48:38.166Z,3.80
2023-03-24T18:51:05.764Z,2.67
2023-03-24T18:53:34.514Z,2.60
2023-03-24T18:56:11.067Z,2.49
2023-03-24T18:58:38.340Z,2.58
2023-03-24T19:01:09.264Z,1.85
2023-03-24T19:03:38.265Z,2.20
2023-03-24T19:06:07.137Z,1.63
2023-03-24T19:08:36.015Z,1.52
2023-03-24T19:11:03.031Z,1.60
2023-03-24T19:13:30.762Z,1.58
2023-03-24T19:15:57.416Z,1.20
2023-03-24T19:18:24.785Z,1.30
2023-03-24T19:20:56.065Z,0.88
2023-03-24T19:23:24.050Z,1.20
2023-03-24T19:25:54.822Z,1.20
2023-03-24T19:28:22.806Z,1.10
2023-03-24T19:30:49.563Z,1.00
2023-03-24T19:33:16.582Z,1.23
2023-03-24T19:35:46.505Z,0.90
2023-03-24T19:38:13.206Z,0.88
2023-03-24T19:40:42.161Z,1.08
2023-03-24T19:43:09.203Z,1.10
2023-03-24T19:45:36.386Z,1.20
2023-03-24T19:48:03.129Z,0.90
2023-03-24T19:50:29.857Z,0.85
2023-03-24T19:52:56.516Z,0.93
2023-03-24T19:55:23.248Z,0.90
2023-03-24T19:57:49.865Z,0.77
2023-03-24T20:00:16.721Z,1.05
2023-03-24T20:02:43.589Z,0.90
2023-03-24T20:05:10.679Z,0.90
2023-03-24T20:07:37.604Z,0.80
2023-03-24T20:10:04.514Z,0.88
2023-03-24T20:12:32.247Z,0.50
2023-03-24T20:14:58.934Z,0.88
2023-03-24T20:17:28.541Z,0.90
2023-03-24T20:19:56.032Z,0.70
2023-03-24T20:22:23.137Z,0.60
2023-03-24T20:24:50.250Z,0.77
2023-03-24T20:27:17.235Z,0.68
2023-03-24T20:29:45.855Z,0.73
2023-03-24T20:32:13.225Z,0.68
2023-03-24T20:34:39.967Z,0.43
2023-03-24T20:37:07.262Z,0.60
2023-03-24T20:39:34.417Z,0.50
2023-03-24T20:42:01.382Z,0.60
2023-03-24T20:44:28.514Z,0.40
2023-03-24T20:46:57.155Z,0.80
2023-03-24T20:49:25.923Z,0.57
2023-03-24T20:51:53.329Z,0.93
2023-03-24T20:54:21.190Z,0.65
2023-03-24T20:56:49.915Z,0.63
2023-03-24T20:59:17.057Z,0.60
2023-03-24T21:01:43.769Z,0.77
2023-03-24T21:04:10.514Z,0.80
2023-03-24T21:06:38.606Z,0.70
2023-03-24T21:09:05.747Z,0.52
2023-03-24T21:11:32.946Z,0.40
2023-03-24T21:14:00.218Z,0.40
2023-03-24T21:16:27.106Z,0.52
2023-03-24T21:18:55.980Z,0.50
2023-03-24T21:21:22.839Z,0.68
2023-03-24T21:23:52.723Z,0.40
2023-03-24T21:26:20.512Z,0.30
2023-03-24T21:28:47.224Z,0.40
2023-03-24T21:31:18.950Z,0.52
2023-03-24T21:33:46.115Z,0.40
2023-03-24T21:36:13.599Z,0.40
2023-03-24T21:38:40.950Z,0.40
2023-03-24T21:41:08.589Z,0.40
2023-03-24T21:43:35.945Z,0.30
2023-03-24T21:46:06.786Z,0.52
2023-03-24T21:48:34.909Z,0.40
2023-03-24T21:51:03.857Z,0.40
2023-03-24T21:53:30.688Z,0.30
2023-03-24T21:56:06.718Z,0.43
2023-03-24T21:58:34.843Z,0.40
2023-03-24T22:01:02.231Z,0.70
2023-03-24T22:03:30.376Z,0.50
2023-03-24T22:05:57.403Z,0.95
2023-03-24T22:08:26.834Z,0.52
2023-03-24T22:10:58.202Z,0.68
2023-03-24T22:13:26.475Z,0.82
2023-03-24T22:15:55.755Z,0.50
2023-03-24T22:18:25.149Z,0.65
2023-03-24T22:21:03.152Z,0.77
2023-03-24T22:23:33.279Z,0.60
2023-03-24T22:26:02.480Z,0.55
2023-03-24T22:28:29.562Z,0.70
2023-03-24T22:31:01.919Z,0.50
2023-03-24T22:33:29.272Z,0.47
2023-03-24T22:35:57.720Z,0.50
2023-03-24T22:38:25.252Z,0.40
2023-03-24T22:40:56.248Z,0.47
2023-03-24T22:43:23.607Z,0.60
2023-03-24T22:45:50.378Z,0.43
2023-03-24T22:48:17.214Z,0.52
2023-03-24T22:50:43.913Z,0.70
2023-03-24T22:53:10.903Z,0.60
2023-03-24T22:55:38.027Z,0.50
2023-03-24T22:58:05.216Z,0.40
2023-03-24T23:00:32.278Z,0.40
2023-03-24T23:02:59.044Z,0.50
2023-03-24T23:05:25.883Z,0.38
2023-03-24T23:07:52.563Z,0.50
2023-03-24T23:10:19.651Z,0.50
2023-03-24T23:12:46.339Z,0.60
2023-03-24T23:15:14.218Z,0.50
2023-03-24T23:17:43.129Z,0.60
2023-03-24T23:20:12.142Z,0.60
2023-03-24T23:22:39.057Z,0.68
2023-03-24T23:25:07.118Z,0.57
2023-03-24T23:27:37.044Z,0.90
2023-03-24T23:30:07.079Z,0.60
2023-03-24T23:32:35.637Z,0.60
2023-03-24T23:35:03.665Z,0.68
2023-03-24T23:37:32.616Z,0.73
2023-03-24T23:40:09.550Z,0.50
2023-03-24T23:42:37.284Z,0.70
2023-03-24T23:45:05.490Z,0.55
2023-03-24T23:47:33.552Z,0.57
2023-03-24T23:50:01.550Z,0.70
2023-03-24T23:52:28.744Z,0.65
2023-03-24T23:54:56.274Z,0.52
2023-03-24T23:57:22.988Z,0.50
2023-03-24T23:59:52.962Z,0.50
